Terminal Aerodrome Forecast
Issued by NWS Charleston, WV

Current Version | Previous Version | Text Only | Print | Product List | Glossary Off
Versions: 1 2 3 4 5 6 7 8 9 10 11 12 13 14 15 16 17 18 19 20 21 22

000
FTUS41 KRLX 231500 AAA
TAFBKW
TAF AMD
KBKW 231506Z 2315/2412 15012G19KT P6SM OVC060
     FM231700 15013G22KT 3SM -RASNPL OVC020
     FM232000 10009KT 2SM -RA BR OVC008
     FM240200 12008KT 2SM -RAPL BR OVC008
     FM240500 12005KT 1SM -SN OVC006
     FM240900 32004KT 2SM -SN OVC008=

USA.gov is the U.S. government's official web portal to all federal, state and local government web resources and services.